Time;durP1;ratioP1;P1;durP2;ratioP2;P2;SDS_P1;SDS_P2;PMS_P1;PMS_P2;Temp;Humidity;BMP_temperature;BMP_pressure;BME280_temperature;BME280_humidity;BME280_pressure;Samples;Min_cycle;Max_cycle;Signal;HPM_P1;HPM_P2
2022/07/15 00:00:13;;;;;;;4.27;2.93;;;20.10;89.30;;;;;;5080387;28;20181;-83
2022/07/15 00:02:39;;;;;;;3.10;2.60;;;20.00;96.90;;;;;;5079176;28;20184;-82
2022/07/15 00:05:06;;;;;;;11.77;2.60;;;20.10;89.00;;;;;;5080637;28;20204;-83
2022/07/15 00:07:33;;;;;;;5.07;3.27;;;;;;;;;;5080149;28;20205;-82
2022/07/15 00:10:14;;;;;;;11.60;3.03;;;;;;;;;;5079281;28;20201;-83
2022/07/15 00:12:45;;;;;;;4.33;3.10;;;20.00;96.90;;;;;;5080640;28;20183;-82
2022/07/15 00:15:11;;;;;;;5.00;2.47;;;20.00;90.00;;;;;;5080913;28;20181;-83
2022/07/15 00:17:37;;;;;;;7.90;2.63;;;;;;;;;;5080223;28;20557;-83
2022/07/15 00:20:04;;;;;;;5.37;2.60;;;;;;;;;;5079320;28;20187;-83
2022/07/15 00:22:29;;;;;;;8.20;2.90;;;19.80;98.00;;;;;;5080577;28;20177;-83
2022/07/15 00:24:55;;;;;;;3.77;2.97;;;;;;;;;;5082085;28;20214;-83
2022/07/15 00:27:21;;;;;;;7.00;2.40;;;19.70;97.80;;;;;;5083127;28;20187;-83
2022/07/15 00:29:47;;;;;;;6.33;2.50;;;;;;;;;;5084850;28;20535;-83
2022/07/15 00:32:13;;;;;;;3.77;2.50;;;;;;;;;;5083360;28;20184;-83
2022/07/15 00:34:39;;;;;;;4.30;2.80;;;19.80;99.90;;;;;;5084265;28;20218;-83
2022/07/15 00:37:05;;;;;;;5.23;2.93;;;;;;;;;;5083278;28;20245;-83
2022/07/15 00:39:31;;;;;;;6.47;3.00;;;20.00;99.90;;;;;;5081866;28;20229;-83
2022/07/15 00:41:56;;;;;;;6.47;3.23;;;19.80;88.60;;;;;;5081931;28;20524;-82
2022/07/15 00:44:22;;;;;;;10.47;2.83;;;19.80;88.50;;;;;;5083254;28;20197;-82
2022/07/15 00:46:48;;;;;;;4.90;3.20;;;;;;;;;;5083293;28;20176;-83
2022/07/15 00:49:14;;;;;;;5.33;3.77;;;;;;;;;;5080716;28;20237;-83
2022/07/15 00:51:43;;;;;;;5.03;2.87;;;19.60;86.80;;;;;;5080403;28;20180;-83
2022/07/15 00:54:14;;;;;;;10.03;2.50;;;19.50;87.70;;;;;;5080440;28;20204;-82
2022/07/15 00:56:45;;;;;;;2.33;2.13;;;19.50;88.60;;;;;;5081814;28;20639;-82
2022/07/15 00:59:13;;;;;;;4.47;2.40;;;19.50;88.30;;;;;;5080063;28;20196;-82
2022/07/15 01:01:41;;;;;;;4.60;2.30;;;19.40;99.90;;;;;;5077817;28;20227;-82
2022/07/15 01:04:07;;;;;;;5.30;2.47;;;19.50;88.40;;;;;;5077262;28;20204;-82
2022/07/15 01:06:33;;;;;;;10.20;2.33;;;;;;;;;;5085295;28;20184;-84
2022/07/15 01:08:59;;;;;;;5.23;2.40;;;19.60;99.90;;;;;;5084847;28;20177;-83
2022/07/15 01:11:25;;;;;;;3.57;2.63;;;;;;;;;;5083658;28;20526;-83
2022/07/15 01:13:51;;;;;;;5.10;2.63;;;19.40;92.00;;;;;;5082846;28;20211;-83
2022/07/15 01:16:17;;;;;;;6.40;3.53;;;;;;;;;;5083855;28;20259;-84
2022/07/15 01:18:43;;;;;;;10.40;3.27;;;;;;;;;;5082739;28;20263;-84
2022/07/15 01:21:10;;;;;;;4.27;3.20;;;;;;;;;;5081080;28;20179;-84
2022/07/15 01:23:40;;;;;;;11.03;3.23;;;;;;;;;;5082735;28;20187;-85
2022/07/15 01:26:06;;;;;;;4.10;2.93;;;18.60;99.90;;;;;;5080657;28;20173;-84
2022/07/15 01:28:32;;;;;;;5.67;3.70;;;;;;;;;;5082598;28;20181;-83
2022/07/15 01:30:58;;;;;;;10.93;3.83;;;;;;;;;;5082039;28;20186;-83
2022/07/15 01:33:24;;;;;;;7.27;3.67;;;;;;;;;;5080120;28;20260;-83
2022/07/15 01:35:49;;;;;;;5.03;3.70;;;18.20;99.90;;;;;;5079916;28;20213;-82
2022/07/15 01:38:16;;;;;;;6.53;4.23;;;;;;;;;;5079735;28;20222;-83
2022/07/15 01:40:41;;;;;;;5.03;3.90;;;17.80;99.90;;;;;;5079930;28;20209;-83
2022/07/15 01:43:07;;;;;;;5.73;3.83;;;;;;;;;;5082050;28;20303;-83
2022/07/15 01:45:33;;;;;;;7.60;3.97;;;18.00;99.90;;;;;;5082193;28;20185;-83
2022/07/15 01:47:59;;;;;;;6.30;3.90;;;;;;;;;;5080041;28;20180;-83
2022/07/15 01:50:25;;;;;;;6.87;4.00;;;17.70;99.90;;;;;;5081977;28;20226;-83
2022/07/15 01:52:51;;;;;;;10.47;4.67;;;;;;;;;;5079679;28;20198;-83
2022/07/15 01:55:17;;;;;;;6.23;4.40;;;17.80;99.90;;;;;;5080516;28;20182;-83
2022/07/15 01:57:43;;;;;;;5.33;3.80;;;;;;;;;;5080231;28;20235;-83
2022/07/15 02:00:11;;;;;;;6.17;4.03;;;17.80;99.90;;;;;;5079745;28;20196;-83
2022/07/15 02:02:37;;;;;;;6.57;3.90;;;18.00;99.90;;;;;;5082086;28;20166;-83
2022/07/15 02:05:04;;;;;;;6.43;3.87;;;;;;;;;;5080736;28;20173;-83
2022/07/15 02:07:29;;;;;;;8.37;3.83;;;17.80;99.90;;;;;;5081587;28;20173;-83
2022/07/15 02:09:55;;;;;;;5.53;3.90;;;;;;;;;;5081622;28;20171;-83
2022/07/15 02:12:21;;;;;;;8.87;4.50;;;17.80;99.90;;;;;;5081064;28;20699;-83
2022/07/15 02:14:47;;;;;;;7.67;4.50;;;;;;;;;;5080078;28;20202;-83
2022/07/15 02:17:13;;;;;;;7.53;4.20;;;18.00;99.90;;;;;;5079493;28;20217;-83
2022/07/15 02:19:39;;;;;;;4.57;3.50;;;;;;;;;;5080982;28;20170;-83
2022/07/15 02:22:05;;;;;;;9.50;4.07;;;17.70;99.90;;;;;;5079143;28;20174;-83
2022/07/15 02:24:30;;;;;;;5.03;3.90;;;17.90;99.90;;;;;;5079900;28;20203;-83
2022/07/15 02:26:56;;;;;;;6.17;3.93;;;;;;;;;;5080323;28;20202;-83
2022/07/15 02:29:22;;;;;;;5.20;3.90;;;17.80;99.90;;;;;;5081336;28;20181;-83
2022/07/15 02:31:48;;;;;;;5.83;4.10;;;;;;;;;;5080578;28;20518;-83
2022/07/15 02:34:14;;;;;;;4.80;3.83;;;17.70;99.90;;;;;;5081758;28;20201;-83
2022/07/15 02:36:40;;;;;;;10.67;4.33;;;17.70;99.90;;;;;;5083983;28;20188;-82
2022/07/15 02:39:06;;;;;;;5.10;4.00;;;;;;;;;;5093668;28;20212;-82
2022/07/15 02:41:32;;;;;;;8.60;4.27;;;17.70;99.90;;;;;;5093448;28;20175;-83
2022/07/15 02:43:59;;;;;;;5.17;3.90;;;17.60;99.90;;;;;;5090119;28;20257;-83
2022/07/15 02:46:24;;;;;;;6.03;4.10;;;17.60;99.90;;;;;;5088013;28;20184;-83
2022/07/15 02:48:50;;;;;;;6.90;4.37;;;17.60;99.90;;;;;;5080733;28;20205;-83
2022/07/15 02:51:16;;;;;;;6.43;4.10;;;;;;;;;;5090744;28;20177;-82
2022/07/15 02:53:42;;;;;;;6.67;4.23;;;;;;;;;;5086972;28;20259;-83
2022/07/15 02:56:08;;;;;;;7.37;4.27;;;17.60;99.90;;;;;;5081989;28;20226;-83
2022/07/15 02:58:34;;;;;;;7.43;4.10;;;;;;;;;;5089688;28;20204;-82
2022/07/15 03:01:00;;;;;;;7.83;4.40;;;17.60;99.90;;;;;;5093386;28;20238;-82
2022/07/15 03:03:28;;;;;;;10.00;4.80;;;17.50;99.90;;;;;;5077823;28;20256;-82
2022/07/15 03:05:56;;;;;;;6.70;4.00;;;17.30;99.90;;;;;;5076508;28;20171;-82
2022/07/15 03:08:22;;;;;;;4.87;4.37;;;17.40;99.90;;;;;;5080724;28;20263;-83
2022/07/15 03:10:48;;;;;;;9.37;4.27;;;;;;;;;;5081660;28;20205;-83
2022/07/15 03:13:13;;;;;;;6.40;3.57;;;17.40;99.90;;;;;;5080041;28;20209;-83
2022/07/15 03:15:39;;;;;;;5.37;3.93;;;;;;;;;;5079283;28;20184;-83
2022/07/15 03:18:05;;;;;;;6.33;3.97;;;;;;;;;;5081693;28;20254;-83
2022/07/15 03:20:31;;;;;;;6.20;4.40;;;17.50;99.90;;;;;;5081430;28;20223;-83
2022/07/15 03:22:57;;;;;;;4.57;4.00;;;;;;;;;;5079991;28;20636;-83
2022/07/15 03:25:24;;;;;;;8.10;4.37;;;17.70;99.90;;;;;;5079998;28;20174;-83
2022/07/15 03:27:50;;;;;;;6.30;4.47;;;;;;;;;;5079848;28;20203;-83
2022/07/15 03:30:16;;;;;;;6.70;4.30;;;17.50;99.90;;;;;;5079755;28;20185;-83
2022/07/15 03:32:42;;;;;;;6.27;4.00;;;17.50;99.90;;;;;;5080098;28;20181;-83
2022/07/15 03:35:08;;;;;;;6.80;4.13;;;;;;;;;;5079583;28;20188;-84
2022/07/15 03:37:34;;;;;;;7.47;3.90;;;17.30;99.90;;;;;;5080707;28;20190;-83
2022/07/15 03:40:00;;;;;;;5.70;3.93;;;;;;;;;;5080253;28;20175;-83
2022/07/15 03:42:26;;;;;;;12.00;4.10;;;;;;;;;;5080160;28;20178;-83
2022/07/15 03:44:52;;;;;;;9.43;4.37;;;;;;;;;;5080542;28;20677;-83
2022/07/15 03:47:18;;;;;;;5.87;3.50;;;;;;;;;;5081160;28;20200;-82
2022/07/15 03:49:44;;;;;;;4.60;3.43;;;;;;;;;;5080131;28;20181;-83
2022/07/15 03:52:10;;;;;;;7.80;3.67;;;17.40;99.90;;;;;;5080844;28;20178;-83
2022/07/15 03:54:36;;;;;;;5.43;3.23;;;;;;;;;;5081055;28;20560;-83
2022/07/15 03:57:02;;;;;;;5.57;3.03;;;17.50;99.90;;;;;;5079377;28;20185;-83
2022/07/15 03:59:28;;;;;;;4.50;3.53;;;17.40;99.90;;;;;;5083240;28;20221;-82
2022/07/15 04:01:54;;;;;;;5.47;3.50;;;;;;;;;;5083625;28;20276;-82
2022/07/15 04:04:20;;;;;;;6.17;3.10;;;17.30;99.90;;;;;;5083855;28;20204;-83
2022/07/15 04:06:46;;;;;;;5.53;2.77;;;;;;;;;;5084898;28;20226;-83
2022/07/15 04:09:12;;;;;;;3.73;2.70;;;17.20;99.90;;;;;;5085100;28;20207;-83
2022/07/15 04:11:42;;;;;;;4.93;3.10;;;17.00;99.90;;;;;;5085689;28;20188;-83
2022/07/15 04:14:12;;;;;;;10.43;3.07;;;17.10;99.90;;;;;;5085131;28;20189;-83
2022/07/15 04:16:38;;;;;;;7.53;3.47;;;17.10;99.90;;;;;;5085809;28;20193;-83
2022/07/15 04:19:04;;;;;;;7.40;3.20;;;;;;;;;;5084981;28;20200;-83
2022/07/15 04:21:31;;;;;;;4.07;2.90;;;17.10;99.90;;;;;;5084087;28;20246;-84
2022/07/15 04:23:57;;;;;;;9.27;3.10;;;17.10;99.90;;;;;;5084162;28;20229;-83
2022/07/15 04:26:23;;;;;;;6.20;3.10;;;17.00;99.90;;;;;;5086624;28;20257;-84
2022/07/15 04:28:49;;;;;;;6.90;3.50;;;;;;;;;;5085361;28;20174;-83
2022/07/15 04:31:15;;;;;;;5.87;3.23;;;16.80;99.90;;;;;;5085797;28;20173;-83
2022/07/15 04:33:41;;;;;;;8.00;3.63;;;;;;;;;;5087581;28;20208;-83
2022/07/15 04:36:07;;;;;;;6.67;2.97;;;;;;;;;;5097922;28;20186;-82
2022/07/15 04:38:33;;;;;;;4.93;3.20;;;16.80;99.90;;;;;;5096880;28;20202;-83
2022/07/15 04:40:59;;;;;;;5.40;3.00;;;;;;;;;;5083757;28;20262;-83
2022/07/15 04:43:24;;;;;;;4.90;3.00;;;16.60;99.90;;;;;;5083235;28;20201;-83
2022/07/15 04:45:50;;;;;;;10.10;3.23;;;;;;;;;;5084416;28;20176;-83
2022/07/15 04:51:01;;;;;;;5.93;2.90;;;16.80;99.90;;;;;;5085155;28;20185;-86
2022/07/15 04:53:27;;;;;;;6.10;3.47;;;;;;;;;;5082761;28;20237;-85
2022/07/15 04:55:53;;;;;;;3.17;2.70;;;16.90;99.90;;;;;;5081774;28;20177;-85
2022/07/15 04:58:19;;;;;;;5.57;2.40;;;;;;;;;;5081884;28;20221;-85
2022/07/15 05:00:46;;;;;;;3.73;2.77;;;16.80;99.90;;;;;;5081665;28;20180;-85
2022/07/15 05:03:13;;;;;;;12.77;3.47;;;16.80;99.90;;;;;;5080786;28;20648;-85
2022/07/15 05:05:39;;;;;;;3.43;2.50;;;;;;;;;;5079761;28;20597;-85
2022/07/15 05:08:06;;;;;;;5.47;2.40;;;16.70;99.90;;;;;;5079477;28;20649;-85
2022/07/15 05:10:32;;;;;;;7.63;2.63;;;17.10;99.90;;;;;;5078768;28;20180;-84
2022/07/15 05:12:58;;;;;;;4.33;2.70;;;;;;;;;;5084517;28;20659;-85
2022/07/15 05:15:24;;;;;;;2.77;2.00;;;16.80;99.90;;;;;;5083209;28;20196;-85
2022/07/15 05:17:50;;;;;;;5.93;2.60;;;16.90;99.90;;;;;;5081830;28;20201;-85
2022/07/15 05:20:16;;;;;;;4.00;2.20;;;;;;;;;;5082979;28;20662;-84
2022/07/15 05:22:42;;;;;;;6.47;2.40;;;;;;;;;;5082298;28;20173;-85
2022/07/15 05:25:09;;;;;;;6.70;2.50;;;;;;;;;;5081833;28;20174;-84
2022/07/15 05:27:34;;;;;;;5.73;2.30;;;17.00;99.90;;;;;;5083175;28;20177;-86
2022/07/15 05:30:01;;;;;;;4.73;2.40;;;;;;;;;;5083337;28;20169;-85
2022/07/15 05:32:27;;;;;;;3.93;2.30;;;;;;;;;;5085357;28;20177;-87
2022/07/15 05:34:54;;;;;;;5.57;2.50;;;;;;;;;;5081497;28;20173;-86
2022/07/15 05:37:20;;;;;;;4.90;2.53;;;;;;;;;;5080408;28;20224;-86
2022/07/15 05:39:56;;;;;;;4.27;2.63;;;;;;;;;;5080256;28;20196;-86
2022/07/15 05:42:22;;;;;;;5.47;3.07;;;17.10;99.90;;;;;;5081422;28;20180;-86
2022/07/15 05:44:48;;;;;;;4.83;3.23;;;;;;;;;;5081647;28;20193;-85
2022/07/15 05:47:15;;;;;;;6.33;2.97;;;;;;;;;;5082728;28;20204;-85
2022/07/15 05:49:41;;;;;;;10.23;2.90;;;;;;;;;;5084289;28;20583;-85
2022/07/15 05:52:10;;;;;;;5.60;3.10;;;17.20;99.90;;;;;;5082819;28;20182;-84
2022/07/15 05:54:39;;;;;;;4.33;3.13;;;17.30;99.90;;;;;;5082180;28;20207;-84
2022/07/15 05:57:05;;;;;;;8.33;3.13;;;;;;;;;;5083290;28;20173;-84
2022/07/15 05:59:31;;;;;;;4.07;2.47;;;17.20;99.90;;;;;;5083241;28;20202;-84
2022/07/15 06:01:58;;;;;;;9.83;3.03;;;17.30;99.90;;;;;;5084704;28;20174;-85
2022/07/15 06:04:26;;;;;;;6.60;3.03;;;;;;;;;;5085887;28;20190;-86
2022/07/15 06:06:53;;;;;;;5.27;3.10;;;;;;;;;;5086353;28;20174;-86
2022/07/15 06:09:19;;;;;;;6.23;2.90;;;;;;;;;;5085557;28;20174;-86
2022/07/15 06:11:45;;;;;;;7.40;3.30;;;;;;;;;;5089038;28;20246;-83
2022/07/15 06:14:11;;;;;;;4.67;3.27;;;;;;;;;;5094165;28;20197;-83
2022/07/15 06:16:38;;;;;;;10.27;3.10;;;17.70;99.90;;;;;;5089990;28;20183;-83
2022/07/15 06:19:03;;;;;;;4.67;3.03;;;17.60;99.90;;;;;;5081568;28;20205;-83
2022/07/15 06:21:32;;;;;;;6.73;3.57;;;;;;;;;;5081080;28;20171;-83
2022/07/15 06:23:58;;;;;;;5.40;3.73;;;17.80;99.90;;;;;;5080923;28;20198;-83
2022/07/15 06:26:24;;;;;;;9.30;3.47;;;;;;;;;;5081867;28;20245;-83
2022/07/15 06:28:50;;;;;;;5.90;4.23;;;18.00;99.90;;;;;;5084492;28;20174;-83
2022/07/15 06:31:16;;;;;;;12.13;3.43;;;;;;;;;;5082544;28;20197;-83
2022/07/15 06:33:41;;;;;;;6.57;3.43;;;18.30;99.90;;;;;;5081513;28;20206;-83
2022/07/15 06:36:07;;;;;;;5.00;3.40;;;18.10;99.90;;;;;;5080379;28;20178;-83
2022/07/15 06:38:34;;;;;;;6.17;3.67;;;;;;;;;;5080473;28;20214;-83
2022/07/15 06:40:59;;;;;;;6.17;3.60;;;18.30;99.90;;;;;;5080014;28;20176;-83
2022/07/15 06:43:25;;;;;;;7.00;3.67;;;18.40;99.90;;;;;;5080286;28;20202;-83
2022/07/15 06:45:51;;;;;;;5.00;3.27;;;;;;;;;;5081998;28;20262;-83
2022/07/15 06:48:17;;;;;;;7.57;3.50;;;;;;;;;;5079748;28;20182;-83
2022/07/15 06:50:43;;;;;;;8.00;3.47;;;18.50;99.90;;;;;;5080680;28;20205;-84
2022/07/15 06:53:09;;;;;;;7.27;3.70;;;18.60;99.90;;;;;;5079650;28;20269;-84
2022/07/15 06:55:35;;;;;;;7.83;3.70;;;;;;;;;;5079575;28;20585;-83
2022/07/15 06:58:01;;;;;;;7.93;3.50;;;18.60;99.90;;;;;;5079118;28;20731;-84
2022/07/15 07:00:27;;;;;;;7.67;4.70;;;;;;;;;;5079598;28;20202;-83
2022/07/15 07:02:52;;;;;;;12.03;4.07;;;19.00;99.90;;;;;;5078529;28;20202;-83
2022/07/15 07:05:18;;;;;;;7.47;3.97;;;;;;;;;;5078060;28;20179;-84
2022/07/15 07:07:44;;;;;;;6.30;3.77;;;19.00;99.90;;;;;;5076236;28;20201;-84
2022/07/15 07:10:10;;;;;;;7.30;4.00;;;;;;;;;;5076209;28;20184;-83
2022/07/15 07:12:36;;;;;;;4.77;3.77;;;19.30;99.90;;;;;;5075469;28;20186;-83
2022/07/15 07:15:04;;;;;;;6.63;4.00;;;19.50;99.90;;;;;;5082094;28;20217;-84
2022/07/15 07:17:29;;;;;;;4.67;3.13;;;19.50;99.90;;;;;;5079480;28;20176;-84
2022/07/15 07:19:55;;;;;;;7.00;4.07;;;19.60;99.90;;;;;;5084538;28;20262;-84
2022/07/15 07:22:22;;;;;;;6.67;4.20;;;19.70;99.90;;;;;;5080370;28;20236;-83
2022/07/15 07:24:47;;;;;;;7.27;3.53;;;19.80;99.90;;;;;;5079297;28;20200;-83
2022/07/15 07:27:14;;;;;;;5.60;4.00;;;;;;;;;;5080746;28;20232;-84
2022/07/15 07:29:40;;;;;;;9.73;3.93;;;;;;;;;;5080508;28;20262;-83
2022/07/15 07:32:06;;;;;;;7.90;3.63;;;;;;;;;;5079589;28;20177;-84
2022/07/15 07:34:32;;;;;;;6.00;3.63;;;;;;;;;;5078690;28;20208;-84
2022/07/15 07:36:58;;;;;;;6.57;3.43;;;;;;;;;;5078964;28;20193;-83
2022/07/15 07:39:24;;;;;;;6.23;3.67;;;20.00;99.90;;;;;;5078902;28;20219;-83
2022/07/15 07:41:53;;;;;;;6.37;3.40;;;;;;;;;;5079340;28;20176;-84
2022/07/15 07:44:20;;;;;;;5.00;3.33;;;20.40;99.90;;;;;;5081308;28;20262;-84
2022/07/15 07:46:46;;;;;;;7.10;3.77;;;20.50;99.90;;;;;;5079939;28;20203;-84
2022/07/15 07:49:12;;;;;;;5.27;3.80;;;20.60;99.90;;;;;;5081600;28;20185;-83
2022/07/15 07:51:40;;;;;;;4.83;3.50;;;;;;;;;;5084788;28;20215;-84
2022/07/15 07:54:07;;;;;;;9.33;3.57;;;20.60;99.90;;;;;;5084486;28;20252;-84
2022/07/15 07:56:32;;;;;;;4.90;3.30;;;20.70;99.90;;;;;;5080220;28;20177;-84
2022/07/15 07:58:59;;;;;;;11.27;3.53;;;;;;;;;;5079140;28;20204;-84
2022/07/15 08:01:24;;;;;;;8.93;3.37;;;20.90;99.90;;;;;;5078914;28;20185;-84
2022/07/15 08:03:50;;;;;;;4.17;3.20;;;20.80;99.90;;;;;;5079286;28;20203;-84
2022/07/15 08:06:17;;;;;;;7.10;3.27;;;20.90;99.90;;;;;;5079389;28;20268;-83
2022/07/15 08:08:43;;;;;;;4.50;3.20;;;21.00;99.90;;;;;;5079192;28;20575;-84
2022/07/15 08:11:11;;;;;;;6.07;3.37;;;20.90;99.90;;;;;;5079525;28;20181;-84
2022/07/15 08:13:36;;;;;;;4.40;3.40;;;21.10;99.90;;;;;;5080952;28;20299;-84
2022/07/15 08:16:03;;;;;;;7.13;3.90;;;;;;;;;;5079505;28;20233;-84
2022/07/15 08:18:29;;;;;;;8.13;3.60;;;;;;;;;;5081251;28;20209;-83
2022/07/15 08:20:55;;;;;;;4.30;3.60;;;;;;;;;;5080987;28;20177;-83
2022/07/15 08:23:21;;;;;;;7.13;3.93;;;;;;;;;;5080981;28;20239;-84
2022/07/15 08:25:49;;;;;;;6.50;3.50;;;21.20;99.90;;;;;;5079873;28;20208;-84
2022/07/15 08:28:15;;;;;;;5.93;3.53;;;;;;;;;;5078708;28;20187;-84
2022/07/15 08:30:41;;;;;;;4.23;3.73;;;21.80;99.90;;;;;;5078788;28;20196;-84
2022/07/15 08:33:07;;;;;;;5.37;3.63;;;;;;;;;;5080414;28;20554;-84
2022/07/15 08:35:34;;;;;;;5.17;3.47;;;;;;;;;;5080657;28;20256;-83
2022/07/15 08:38:05;;;;;;;6.17;3.20;;;21.80;99.90;;;;;;5078916;28;20220;-84
2022/07/15 08:40:31;;;;;;;8.23;3.40;;;;;;;;;;5079195;28;20233;-84
2022/07/15 08:42:57;;;;;;;4.13;3.23;;;21.90;99.90;;;;;;5079158;28;20197;-84
2022/07/15 08:45:23;;;;;;;4.53;3.20;;;;;;;;;;5081642;28;20281;-84
2022/07/15 08:47:51;;;;;;;5.80;3.20;;;22.40;99.90;;;;;;5082456;28;20276;-84
2022/07/15 08:50:19;;;;;;;6.83;3.10;;;22.30;99.90;;;;;;5083382;28;20193;-84
2022/07/15 08:52:46;;;;;;;5.43;3.40;;;22.40;99.90;;;;;;5083305;28;20209;-84
2022/07/15 08:55:15;;;;;;;12.50;3.43;;;22.30;99.90;;;;;;5082011;28;20654;-83
2022/07/15 08:57:45;;;;;;;4.80;3.20;;;22.30;99.90;;;;;;5081314;28;20189;-83
2022/07/15 09:00:11;;;;;;;4.67;3.67;;;22.70;99.90;;;;;;5082728;28;20216;-83
2022/07/15 09:02:38;;;;;;;4.13;3.20;;;;;;;;;;5081570;28;20169;-83
2022/07/15 09:05:22;;;;;;;7.70;3.33;;;22.80;99.90;;;;;;5080323;28;20581;-83
2022/07/15 09:08:00;;;;;;;5.27;3.17;;;23.00;99.90;;;;;;5080932;28;20248;-84
2022/07/15 09:10:43;;;;;;;4.67;3.30;;;23.30;99.90;;;;;;5079871;28;20171;-84
2022/07/15 09:13:21;;;;;;;5.63;3.50;;;23.50;99.90;;;;;;5079428;28;20749;-83
2022/07/15 09:15:47;;;;;;;5.20;3.13;;;;;;;;;;5076815;28;20169;-83
2022/07/15 09:18:19;;;;;;;5.53;3.60;;;23.60;99.90;;;;;;5080751;28;20206;-84
2022/07/15 09:20:45;;;;;;;4.37;3.20;;;23.80;99.90;;;;;;5083923;28;20160;-84
2022/07/15 09:23:20;;;;;;;6.47;3.30;;;24.00;99.90;;;;;;5083548;28;20191;-84
2022/07/15 09:25:48;;;;;;;5.63;3.00;;;24.20;99.90;;;;;;5084193;28;20638;-84
2022/07/15 09:28:14;;;;;;;7.43;3.63;;;;;;;;;;5085437;28;20199;-85
2022/07/15 09:33:50;;;;;;;4.43;2.80;;;24.50;99.90;;;;;;5085163;28;20215;-84
2022/07/15 09:36:26;;;;;;;6.70;3.80;;;24.60;99.90;;;;;;5082935;28;20197;-82
2022/07/15 09:38:55;;;;;;;5.03;2.70;;;24.50;99.90;;;;;;5081956;28;20210;-84
2022/07/15 09:41:25;;;;;;;3.87;2.77;;;24.50;99.90;;;;;;5082864;28;20688;-84
2022/07/15 09:44:01;;;;;;;6.10;3.43;;;24.00;99.90;;;;;;5081904;28;20197;-83
2022/07/15 09:46:49;;;;;;;7.77;2.87;;;24.30;99.90;;;;;;5083220;28;20155;-85
2022/07/15 09:49:17;;;;;;;6.37;2.73;;;24.20;99.90;;;;;;5081627;28;20535;-85
2022/07/15 09:51:47;;;;;;;8.20;2.50;;;24.40;99.90;;;;;;5081663;28;20224;-82
2022/07/15 09:54:13;;;;;;;5.70;2.80;;;24.60;99.90;;;;;;5083110;28;20200;-84
2022/07/15 09:56:40;;;;;;;3.87;2.40;;;;;;;;;;5081767;28;20197;-84
2022/07/15 09:59:07;;;;;;;6.93;2.53;;;25.00;99.90;;;;;;5082591;28;20200;-85
2022/07/15 10:01:35;;;;;;;6.50;2.77;;;25.10;98.20;;;;;;5081725;28;20173;-83
2022/07/15 10:04:01;;;;;;;5.60;2.30;;;25.10;97.20;;;;;;5082656;28;20193;-82
2022/07/15 10:06:27;;;;;;;3.90;2.90;;;25.20;99.90;;;;;;5084967;28;20166;-84
2022/07/15 10:08:54;;;;;;;4.93;2.70;;;;;;;;;;5083660;28;20272;-83
2022/07/15 10:11:20;;;;;;;7.93;2.33;;;25.40;97.30;;;;;;5083472;28;20183;-84
2022/07/15 10:14:11;;;;;;;7.63;2.90;;;25.30;96.80;;;;;;5083846;28;20207;-82
2022/07/15 10:17:17;;;;;;;3.70;2.40;;;25.40;98.40;;;;;;5085361;28;20233;-83
2022/07/15 10:19:58;;;;;;;3.73;2.50;;;25.70;98.80;;;;;;5086128;28;20282;-84
2022/07/15 10:23:01;;;;;;;3.10;2.47;;;26.20;99.90;;;;;;5085785;28;20239;-84
2022/07/15 10:25:27;;;;;;;4.97;2.30;;;26.20;99.40;;;;;;5087261;28;20176;-82
2022/07/15 10:28:09;;;;;;;11.40;2.40;;;26.50;99.00;;;;;;5085995;28;20719;-83
2022/07/15 10:30:37;;;;;;;5.30;3.00;;;26.50;96.70;;;;;;5082998;28;20542;-82
2022/07/15 10:33:06;;;;;;;4.90;2.40;;;26.60;96.30;;;;;;5083585;28;20264;-83
2022/07/15 10:35:42;;;;;;;4.40;2.00;;;26.50;96.00;;;;;;5083731;28;20665;-84
2022/07/15 10:38:25;;;;;;;2.37;2.10;;;26.60;99.00;;;;;;5085483;28;20209;-84
2022/07/15 10:41:02;;;;;;;14.37;2.83;;;26.50;97.40;;;;;;5083035;28;20184;-84
2022/07/15 10:43:37;;;;;;;4.10;2.30;;;26.60;99.40;;;;;;5085436;28;20190;-84
2022/07/15 10:46:04;;;;;;;5.10;2.40;;;26.80;96.80;;;;;;5084141;28;20177;-85
2022/07/15 10:48:30;;;;;;;6.67;2.63;;;26.90;93.90;;;;;;5083194;28;20240;-84
2022/07/15 10:50:56;;;;;;;9.90;2.77;;;27.00;99.30;;;;;;5084194;28;20266;-84
2022/07/15 10:53:27;;;;;;;4.70;2.80;;;27.20;93.40;;;;;;5081164;28;20224;-84
2022/07/15 10:55:53;;;;;;;4.90;2.47;;;27.30;93.90;;;;;;5081243;28;20169;-83
2022/07/15 10:58:19;;;;;;;5.03;2.13;;;26.90;91.50;;;;;;5082854;28;20269;-84
2022/07/15 11:00:46;;;;;;;5.50;2.50;;;26.70;92.10;;;;;;5082508;28;20216;-84
2022/07/15 11:03:16;;;;;;;5.93;2.60;;;26.50;94.50;;;;;;5084990;28;20205;-83
2022/07/15 11:05:45;;;;;;;4.60;2.20;;;26.40;92.80;;;;;;5089479;28;20177;-84
2022/07/15 11:08:32;;;;;;;5.17;2.27;;;26.60;95.40;;;;;;5085417;28;20175;-84
2022/07/15 11:11:13;;;;;;;4.90;2.40;;;27.10;97.10;;;;;;5081911;28;20167;-84
2022/07/15 11:13:39;;;;;;;6.60;2.67;;;27.10;92.80;;;;;;5079850;28;20288;-84
2022/07/15 11:16:09;;;;;;;5.23;2.30;;;27.20;92.90;;;;;;5077685;28;20210;-84
2022/07/15 11:19:10;;;;;;;5.27;2.63;;;27.30;90.90;;;;;;5074072;28;20576;-84
2022/07/15 11:21:37;;;;;;;3.57;2.20;;;27.20;92.30;;;;;;5065291;28;20261;-85
2022/07/15 11:24:03;;;;;;;4.90;2.47;;;27.60;92.60;;;;;;5077885;28;20201;-85
2022/07/15 11:26:48;;;;;;;5.87;2.37;;;27.80;92.30;;;;;;5079630;28;20186;-84
2022/07/15 11:29:13;;;;;;;4.53;2.40;;;27.60;90.80;;;;;;5078878;28;20231;-84
2022/07/15 11:31:40;;;;;;;3.47;2.30;;;27.30;91.40;;;;;;5080811;28;20648;-83
2022/07/15 11:34:06;;;;;;;4.53;2.30;;;26.90;93.50;;;;;;5078823;28;20198;-84
2022/07/15 11:36:32;;;;;;;5.13;2.10;;;26.80;93.10;;;;;;5078423;28;20647;-83
2022/07/15 11:38:58;;;;;;;3.73;2.20;;;26.80;91.80;;;;;;5078324;28;20251;-84
2022/07/15 11:46:56;;;;;;;4.47;2.50;;;27.10;94.20;;;;;;5082584;28;20165;-83
2022/07/15 11:49:29;;;;;;;9.07;2.70;;;27.40;91.70;;;;;;5083804;28;20196;-85
2022/07/15 11:51:55;;;;;;;4.40;2.20;;;27.50;92.30;;;;;;5081891;28;20214;-85
2022/07/15 11:54:22;;;;;;;5.40;2.17;;;27.70;92.80;;;;;;5081772;28;20202;-85
2022/07/15 11:56:56;;;;;;;6.33;2.47;;;27.60;93.20;;;;;;5079674;28;20183;-84
2022/07/15 11:59:22;;;;;;;4.87;2.50;;;27.20;90.40;;;;;;5085023;28;20710;-83
2022/07/15 12:01:48;;;;;;;4.17;2.50;;;27.20;90.10;;;;;;5082418;28;20181;-85
2022/07/15 12:04:14;;;;;;;3.73;2.20;;;27.20;93.80;;;;;;5084290;28;20276;-84
2022/07/15 12:06:40;;;;;;;5.90;2.13;;;27.00;93.00;;;;;;5084053;28;20170;-84
2022/07/15 12:09:08;;;;;;;4.07;2.10;;;26.60;90.70;;;;;;5083335;28;20719;-83
2022/07/15 12:11:38;;;;;;;3.93;2.13;;;26.70;88.60;;;;;;5082509;28;20241;-84
2022/07/15 12:14:09;;;;;;;6.50;2.10;;;27.20;93.50;;;;;;5081437;28;20206;-84
2022/07/15 12:16:40;;;;;;;4.07;2.27;;;27.40;91.10;;;;;;5081460;28;20209;-85
2022/07/15 12:19:07;;;;;;;3.60;2.37;;;27.00;91.10;;;;;;5082406;28;20201;-84
2022/07/15 12:21:33;;;;;;;5.57;2.27;;;26.70;91.40;;;;;;5087576;28;20165;-84
2022/07/15 12:24:06;;;;;;;6.93;2.50;;;26.80;91.50;;;;;;5085066;28;20620;-84
2022/07/15 12:26:41;;;;;;;3.60;2.20;;;27.20;92.90;;;;;;5085327;28;20194;-84
2022/07/15 12:29:09;;;;;;;4.23;2.23;;;27.30;90.60;;;;;;5086261;28;20236;-83
2022/07/15 12:31:37;;;;;;;9.23;2.60;;;27.00;88.80;;;;;;5085492;28;20193;-83
2022/07/15 12:34:04;;;;;;;6.33;2.60;;;26.70;87.40;;;;;;5084558;28;20208;-85
2022/07/15 12:36:34;;;;;;;5.17;2.40;;;26.30;90.20;;;;;;5084323;28;20184;-84
2022/07/15 12:39:15;;;;;;;4.63;2.80;;;26.40;91.20;;;;;;5083759;28;20311;-84
2022/07/15 12:41:44;;;;;;;3.57;2.33;;;26.30;88.60;;;;;;5085336;28;20252;-83
2022/07/15 12:44:10;;;;;;;7.13;2.70;;;26.30;89.30;;;;;;5086199;28;20203;-82
2022/07/15 12:46:57;;;;;;;2.77;2.10;;;26.40;91.30;;;;;;5096175;28;20173;-84
2022/07/15 12:49:52;;;;;;;5.80;2.87;;;27.10;91.60;;;;;;5084144;28;20177;-84
2022/07/15 12:52:37;;;;;;;4.77;2.50;;;27.60;92.90;;;;;;5082854;28;20696;-84
2022/07/15 12:55:20;;;;;;;3.73;2.60;;;27.90;91.80;;;;;;5085022;28;20179;-84
2022/07/15 12:57:47;;;;;;;4.07;2.70;;;28.50;90.30;;;;;;5084560;28;20205;-83
2022/07/15 13:00:14;;;;;;;5.83;2.50;;;28.90;88.30;;;;;;5085574;28;20204;-84
2022/07/15 13:03:00;;;;;;;4.77;2.30;;;29.30;83.40;;;;;;5086602;28;20645;-83
2022/07/15 13:05:31;;;;;;;7.67;2.43;;;29.30;87.10;;;;;;5081743;28;20272;-84
2022/07/15 13:07:57;;;;;;;3.97;2.30;;;29.40;85.70;;;;;;5079869;28;20166;-84
2022/07/15 13:10:23;;;;;;;3.77;2.30;;;29.00;83.60;;;;;;5079611;28;20523;-84
2022/07/15 13:12:49;;;;;;;3.57;2.40;;;28.20;83.90;;;;;;5079514;28;20220;-84
2022/07/15 13:15:15;;;;;;;4.37;2.30;;;27.60;85.80;;;;;;5078950;28;20647;-83
2022/07/15 13:17:41;;;;;;;4.53;2.27;;;27.20;86.30;;;;;;5078157;28;20187;-83
2022/07/15 13:20:07;;;;;;;2.77;2.20;;;27.50;88.30;;;;;;5080019;28;20173;-83
2022/07/15 13:22:33;;;;;;;4.67;2.27;;;28.20;80.90;;;;;;5078301;28;20209;-83
2022/07/15 13:24:59;;;;;;;4.33;2.70;;;28.20;82.20;;;;;;5079462;28;20197;-83
2022/07/15 13:27:25;;;;;;;3.73;2.30;;;28.20;83.80;;;;;;5086780;28;20173;-85
2022/07/15 13:29:51;;;;;;;4.10;2.17;;;28.30;88.60;;;;;;5086695;28;20185;-84
2022/07/15 13:32:17;;;;;;;3.40;2.33;;;28.40;92.00;;;;;;5089312;28;20197;-85
2022/07/15 13:34:43;;;;;;;4.07;2.63;;;28.20;82.80;;;;;;5094139;28;20220;-85